Arapahoe, NE

7:21 AM CDT on September 23, 2014 (GMT -0500)
Brewster | Change Station
CLOSE
Current Station
Airport
Location: Holdrege,
Elevation: 2310 ft
Nearby Weather Stations

Elev 2310 ft 40.45 °N, 99.34 °W | Updated 6 minutes ago

Partly Cloudy
Partly Cloudy
55 °F
Feels Like 55 °F
N
8
Wind Variable Wind from SE

Today
High -- | Low -- °F
--% Chance of Precip.
Yesterday
High -- | Low -- °F
Precip. -- in
7:28 AM 7:34 PM
Waning Crescent, 1% visible
Pressure 30.06 in
Visibility 10.0 miles
Clouds Scattered Clouds 1300 ft
Dew Point 53 °F
Humidity 94%
Rainfall 1.30 in
Snow Depth Not available.
UV 0 out of 12
Pollen 2.60 out of 12
Air Quality Not available.
Flu Activity Not available.
METAR KHDE 231215Z AUTO 14007KT 10SM SCT013 13/12 A3006 RMK AO2 LTG DSNT S T01260116

More Conditions Fewer Conditions

Pressure 30.06 in
Visibility 10.0 miles
Clouds Scattered Clouds 1300 ft
Dew Point 53 °F
Humidity 94%
Rainfall 1.30 in
Snow Depth Not available.
UV 0 out of 12
Pollen 2.60 out of 12
Air Quality Not available.
Flu Activity Not available.
METAR KHDE 231215Z AUTO 14007KT 10SM SCT013 13/12 A3006 RMK AO2 LTG DSNT S T01260116

More Conditions Fewer Conditions

10-Day Weather Forecast

Almanac

Astronomy

Sep. 23, 2014 Rise Set
Actual Time 7:28 AM CDT 7:34 PM CDT
Civil Twilight 7:01 AM CDT 8:02 PM CDT
Nautical Twilight 6:29 AM CDT 8:33 PM CDT
Astronomical Twilight 5:56 AM CDT 9:06 PM CDT
Moon 6:54 AM CDT 7:14 PM CDT
Length of Visible Light 13h 01m
Length of Day
12h 06m
Tomorrow will be 2m 39s shorter.
Waning Crescent, 1% of the Moon is Illuminated
Today
Waning Crescent
Sep 24
New
Oct 1
First Quarter
Oct 8
Full
Oct 15
Last Quarter

Today's Extremes

State Highs State Lows

Community

WunderPhotos

Upload Photos

1,755,659 photos uploaded!

WunderBlogs® & News

Nearby

Snow Depth

Station Depth Elevation
No new snow has been reported.

Earthquake Activity

City Distance Mag. Time & Date
No recent earthquake activity has been reported nearby.
Minimum magnitude displayed is 2.5.

Coastal Water Temperatures

Place Temperature
No Stations Reporting

Nearby Weather Stations